sensor_id;sensor_type;location;lat;lon;timestamp;P1;durP1;ratioP1;P2;durP2;ratioP2
27495;SDS011;14929;51.336;9.416;2024-03-02T00:01:38;8.48;;;7.57;;
27495;SDS011;14929;51.336;9.416;2024-03-02T00:04:08;8.45;;;7.15;;
27495;SDS011;14929;51.336;9.416;2024-03-02T00:06:36;9.50;;;7.95;;
27495;SDS011;14929;51.336;9.416;2024-03-02T00:09:03;10.82;;;8.18;;
27495;SDS011;14929;51.336;9.416;2024-03-02T00:11:34;8.68;;;7.55;;
27495;SDS011;14929;51.336;9.416;2024-03-02T00:14:02;7.32;;;6.63;;
27495;SDS011;14929;51.336;9.416;2024-03-02T00:16:30;8.40;;;7.13;;
27495;SDS011;14929;51.336;9.416;2024-03-02T00:19:01;8.20;;;6.47;;
27495;SDS011;14929;51.336;9.416;2024-03-02T00:21:31;9.65;;;8.32;;
27495;SDS011;14929;51.336;9.416;2024-03-02T00:24:00;8.15;;;6.68;;
27495;SDS011;14929;51.336;9.416;2024-03-02T00:26:30;8.52;;;7.32;;
27495;SDS011;14929;51.336;9.416;2024-03-02T00:28:57;8.35;;;7.40;;
27495;SDS011;14929;51.336;9.416;2024-03-02T00:31:26;10.70;;;8.35;;
27495;SDS011;14929;51.336;9.416;2024-03-02T00:33:53;8.77;;;7.88;;
27495;SDS011;14929;51.336;9.416;2024-03-02T00:36:22;12.65;;;8.73;;
27495;SDS011;14929;51.336;9.416;2024-03-02T00:38:54;11.73;;;8.30;;
27495;SDS011;14929;51.336;9.416;2024-03-02T00:41:22;10.70;;;7.40;;
27495;SDS011;14929;51.336;9.416;2024-03-02T00:43:57;9.75;;;8.73;;
27495;SDS011;14929;51.336;9.416;2024-03-02T00:46:27;7.53;;;6.75;;
27495;SDS011;14929;51.336;9.416;2024-03-02T00:48:56;8.98;;;7.55;;
27495;SDS011;14929;51.336;9.416;2024-03-02T00:51:25;10.05;;;5.90;;
27495;SDS011;14929;51.336;9.416;2024-03-02T00:53:57;6.78;;;6.18;;
27495;SDS011;14929;51.336;9.416;2024-03-02T00:56:29;6.57;;;5.40;;
27495;SDS011;14929;51.336;9.416;2024-03-02T00:58:57;11.25;;;7.47;;
27495;SDS011;14929;51.336;9.416;2024-03-02T01:01:25;8.68;;;6.93;;
27495;SDS011;14929;51.336;9.416;2024-03-02T01:03:52;5.68;;;5.15;;
27495;SDS011;14929;51.336;9.416;2024-03-02T01:06:20;5.78;;;5.28;;
27495;SDS011;14929;51.336;9.416;2024-03-02T01:08:48;5.75;;;5.18;;
27495;SDS011;14929;51.336;9.416;2024-03-02T01:11:17;6.05;;;5.45;;
27495;SDS011;14929;51.336;9.416;2024-03-02T01:13:47;6.55;;;5.63;;
27495;SDS011;14929;51.336;9.416;2024-03-02T01:16:14;7.47;;;6.20;;
27495;SDS011;14929;51.336;9.416;2024-03-02T01:18:42;7.85;;;5.65;;
27495;SDS011;14929;51.336;9.416;2024-03-02T01:21:10;6.32;;;5.72;;
27495;SDS011;14929;51.336;9.416;2024-03-02T01:23:38;6.05;;;5.47;;
27495;SDS011;14929;51.336;9.416;2024-03-02T01:26:05;5.90;;;4.97;;
27495;SDS011;14929;51.336;9.416;2024-03-02T01:28:34;5.53;;;5.03;;
27495;SDS011;14929;51.336;9.416;2024-03-02T01:31:02;5.88;;;5.28;;
27495;SDS011;14929;51.336;9.416;2024-03-02T01:33:30;5.30;;;4.80;;
27495;SDS011;14929;51.336;9.416;2024-03-02T01:35:57;6.60;;;5.97;;
27495;SDS011;14929;51.336;9.416;2024-03-02T01:38:25;8.32;;;6.93;;
27495;SDS011;14929;51.336;9.416;2024-03-02T01:40:53;6.70;;;6.00;;
27495;SDS011;14929;51.336;9.416;2024-03-02T01:43:21;6.28;;;5.60;;
27495;SDS011;14929;51.336;9.416;2024-03-02T01:45:50;9.95;;;7.78;;
27495;SDS011;14929;51.336;9.416;2024-03-02T01:48:18;7.45;;;6.30;;
27495;SDS011;14929;51.336;9.416;2024-03-02T01:50:46;8.30;;;6.25;;
27495;SDS011;14929;51.336;9.416;2024-03-02T01:53:13;6.63;;;5.47;;
27495;SDS011;14929;51.336;9.416;2024-03-02T01:55:41;7.07;;;5.75;;
27495;SDS011;14929;51.336;9.416;2024-03-02T01:58:09;4.75;;;4.20;;
27495;SDS011;14929;51.336;9.416;2024-03-02T02:00:37;5.50;;;5.00;;
27495;SDS011;14929;51.336;9.416;2024-03-02T02:03:06;7.65;;;6.47;;
27495;SDS011;14929;51.336;9.416;2024-03-02T02:05:33;8.70;;;6.85;;
27495;SDS011;14929;51.336;9.416;2024-03-02T02:08:01;6.90;;;6.20;;
27495;SDS011;14929;51.336;9.416;2024-03-02T02:10:29;5.82;;;5.07;;
27495;SDS011;14929;51.336;9.416;2024-03-02T02:12:57;7.32;;;6.63;;
27495;SDS011;14929;51.336;9.416;2024-03-02T02:15:25;7.18;;;6.45;;
27495;SDS011;14929;51.336;9.416;2024-03-02T02:17:53;8.13;;;6.32;;
27495;SDS011;14929;51.336;9.416;2024-03-02T02:20:22;10.40;;;7.35;;
27495;SDS011;14929;51.336;9.416;2024-03-02T02:22:56;7.40;;;6.45;;
27495;SDS011;14929;51.336;9.416;2024-03-02T02:25:24;9.32;;;7.35;;
27495;SDS011;14929;51.336;9.416;2024-03-02T02:27:52;7.88;;;6.20;;
27495;SDS011;14929;51.336;9.416;2024-03-02T02:30:20;9.57;;;6.72;;
27495;SDS011;14929;51.336;9.416;2024-03-02T02:32:48;9.80;;;6.22;;
27495;SDS011;14929;51.336;9.416;2024-03-02T02:35:16;9.40;;;7.60;;
27495;SDS011;14929;51.336;9.416;2024-03-02T02:37:44;8.35;;;7.30;;
27495;SDS011;14929;51.336;9.416;2024-03-02T02:40:14;6.13;;;5.53;;
27495;SDS011;14929;51.336;9.416;2024-03-02T02:42:44;7.85;;;7.00;;
27495;SDS011;14929;51.336;9.416;2024-03-02T02:45:11;5.43;;;4.93;;
27495;SDS011;14929;51.336;9.416;2024-03-02T02:47:39;8.65;;;7.22;;
27495;SDS011;14929;51.336;9.416;2024-03-02T02:50:07;9.30;;;7.13;;
27495;SDS011;14929;51.336;9.416;2024-03-02T02:52:36;9.63;;;7.72;;
27495;SDS011;14929;51.336;9.416;2024-03-02T02:57:33;9.50;;;7.78;;
27495;SDS011;14929;51.336;9.416;2024-03-02T03:00:03;8.32;;;7.15;;
27495;SDS011;14929;51.336;9.416;2024-03-02T03:02:35;8.38;;;7.30;;
27495;SDS011;14929;51.336;9.416;2024-03-02T03:05:04;8.15;;;7.00;;
27495;SDS011;14929;51.336;9.416;2024-03-02T03:07:33;9.95;;;8.60;;
27495;SDS011;14929;51.336;9.416;2024-03-02T03:10:02;9.40;;;7.45;;
27495;SDS011;14929;51.336;9.416;2024-03-02T03:12:33;8.25;;;7.30;;
27495;SDS011;14929;51.336;9.416;2024-03-02T03:15:01;8.98;;;8.07;;
27495;SDS011;14929;51.336;9.416;2024-03-02T03:17:29;9.45;;;7.55;;
27495;SDS011;14929;51.336;9.416;2024-03-02T03:19:57;11.45;;;9.82;;
27495;SDS011;14929;51.336;9.416;2024-03-02T03:22:25;11.35;;;9.23;;
27495;SDS011;14929;51.336;9.416;2024-03-02T03:24:53;9.95;;;8.80;;
27495;SDS011;14929;51.336;9.416;2024-03-02T03:27:21;7.93;;;7.13;;
27495;SDS011;14929;51.336;9.416;2024-03-02T03:29:50;9.50;;;7.70;;
27495;SDS011;14929;51.336;9.416;2024-03-02T03:32:17;9.00;;;7.00;;
27495;SDS011;14929;51.336;9.416;2024-03-02T03:34:45;8.95;;;7.32;;
27495;SDS011;14929;51.336;9.416;2024-03-02T03:37:13;8.77;;;7.78;;
27495;SDS011;14929;51.336;9.416;2024-03-02T03:39:40;9.77;;;8.80;;
27495;SDS011;14929;51.336;9.416;2024-03-02T03:42:08;8.63;;;7.82;;
27495;SDS011;14929;51.336;9.416;2024-03-02T03:44:35;8.35;;;7.43;;
27495;SDS011;14929;51.336;9.416;2024-03-02T03:47:06;11.25;;;8.05;;
27495;SDS011;14929;51.336;9.416;2024-03-02T03:49:33;9.10;;;7.68;;
27495;SDS011;14929;51.336;9.416;2024-03-02T03:52:01;7.47;;;5.60;;
27495;SDS011;14929;51.336;9.416;2024-03-02T03:54:29;7.47;;;6.75;;
27495;SDS011;14929;51.336;9.416;2024-03-02T03:56:56;7.25;;;6.20;;
27495;SDS011;14929;51.336;9.416;2024-03-02T03:59:24;10.60;;;8.35;;
27495;SDS011;14929;51.336;9.416;2024-03-02T04:01:51;8.15;;;7.35;;
27495;SDS011;14929;51.336;9.416;2024-03-02T04:04:20;10.38;;;8.63;;
27495;SDS011;14929;51.336;9.416;2024-03-02T04:06:48;9.25;;;7.28;;
27495;SDS011;14929;51.336;9.416;2024-03-02T04:09:15;8.20;;;7.20;;
27495;SDS011;14929;51.336;9.416;2024-03-02T04:11:43;9.77;;;8.40;;
27495;SDS011;14929;51.336;9.416;2024-03-02T04:14:11;8.63;;;7.57;;
27495;SDS011;14929;51.336;9.416;2024-03-02T04:16:39;10.55;;;8.10;;
27495;SDS011;14929;51.336;9.416;2024-03-02T04:19:06;8.77;;;7.97;;
27495;SDS011;14929;51.336;9.416;2024-03-02T04:21:35;11.10;;;7.95;;
27495;SDS011;14929;51.336;9.416;2024-03-02T04:24:03;8.35;;;6.85;;
27495;SDS011;14929;51.336;9.416;2024-03-02T04:26:31;8.00;;;7.20;;
27495;SDS011;14929;51.336;9.416;2024-03-02T04:28:59;7.57;;;6.78;;
27495;SDS011;14929;51.336;9.416;2024-03-02T04:31:26;12.40;;;8.48;;
27495;SDS011;14929;51.336;9.416;2024-03-02T04:33:54;6.50;;;5.85;;
27495;SDS011;14929;51.336;9.416;2024-03-02T04:36:22;13.18;;;10.38;;
27495;SDS011;14929;51.336;9.416;2024-03-02T04:38:51;11.80;;;8.82;;
27495;SDS011;14929;51.336;9.416;2024-03-02T04:41:18;9.60;;;7.53;;
27495;SDS011;14929;51.336;9.416;2024-03-02T04:43:46;7.15;;;6.45;;
27495;SDS011;14929;51.336;9.416;2024-03-02T04:46:14;8.25;;;7.32;;
27495;SDS011;14929;51.336;9.416;2024-03-02T04:48:41;11.45;;;8.30;;
27495;SDS011;14929;51.336;9.416;2024-03-02T04:51:09;7.32;;;6.32;;
27495;SDS011;14929;51.336;9.416;2024-03-02T04:53:38;9.73;;;7.07;;
27495;SDS011;14929;51.336;9.416;2024-03-02T04:56:07;7.93;;;7.13;;
27495;SDS011;14929;51.336;9.416;2024-03-02T04:59:04;8.45;;;6.60;;
27495;SDS011;14929;51.336;9.416;2024-03-02T05:01:32;7.43;;;6.05;;
27495;SDS011;14929;51.336;9.416;2024-03-02T05:03:59;8.52;;;7.60;;
27495;SDS011;14929;51.336;9.416;2024-03-02T05:06:27;6.03;;;5.30;;
27495;SDS011;14929;51.336;9.416;2024-03-02T05:08:55;5.88;;;5.03;;
27495;SDS011;14929;51.336;9.416;2024-03-02T05:11:24;5.40;;;4.90;;
27495;SDS011;14929;51.336;9.416;2024-03-02T05:14:09;7.75;;;6.47;;
27495;SDS011;14929;51.336;9.416;2024-03-02T05:16:37;5.95;;;5.38;;
27495;SDS011;14929;51.336;9.416;2024-03-02T05:19:05;6.82;;;5.63;;
27495;SDS011;14929;51.336;9.416;2024-03-02T05:21:32;6.40;;;5.50;;
27495;SDS011;14929;51.336;9.416;2024-03-02T05:24:00;6.00;;;5.38;;
27495;SDS011;14929;51.336;9.416;2024-03-02T05:26:29;6.30;;;5.70;;
27495;SDS011;14929;51.336;9.416;2024-03-02T05:28:57;5.68;;;5.18;;
27495;SDS011;14929;51.336;9.416;2024-03-02T05:31:24;5.18;;;4.68;;
27495;SDS011;14929;51.336;9.416;2024-03-02T05:33:52;5.40;;;4.85;;
27495;SDS011;14929;51.336;9.416;2024-03-02T05:36:19;8.13;;;6.50;;
27495;SDS011;14929;51.336;9.416;2024-03-02T05:38:47;7.43;;;5.85;;
27495;SDS011;14929;51.336;9.416;2024-03-02T05:41:14;8.32;;;7.47;;
27495;SDS011;14929;51.336;9.416;2024-03-02T05:43:44;7.40;;;6.20;;
27495;SDS011;14929;51.336;9.416;2024-03-02T05:46:11;7.07;;;6.10;;
27495;SDS011;14929;51.336;9.416;2024-03-02T05:48:39;5.95;;;5.30;;
27495;SDS011;14929;51.336;9.416;2024-03-02T05:51:06;5.43;;;4.97;;
27495;SDS011;14929;51.336;9.416;2024-03-02T05:53:34;6.95;;;6.25;;
27495;SDS011;14929;51.336;9.416;2024-03-02T05:56:03;6.32;;;5.55;;
27495;SDS011;14929;51.336;9.416;2024-03-02T05:58:31;5.35;;;4.82;;
27495;SDS011;14929;51.336;9.416;2024-03-02T06:01:14;4.93;;;4.43;;
27495;SDS011;14929;51.336;9.416;2024-03-02T06:03:43;6.60;;;6.00;;
27495;SDS011;14929;51.336;9.416;2024-03-02T06:06:10;6.13;;;5.60;;
27495;SDS011;14929;51.336;9.416;2024-03-02T06:08:38;5.68;;;5.07;;
27495;SDS011;14929;51.336;9.416;2024-03-02T06:11:05;7.95;;;7.15;;
27495;SDS011;14929;51.336;9.416;2024-03-02T06:13:33;7.05;;;6.32;;
27495;SDS011;14929;51.336;9.416;2024-03-02T06:16:00;8.80;;;8.00;;
27495;SDS011;14929;51.336;9.416;2024-03-02T06:18:30;7.20;;;6.50;;
27495;SDS011;14929;51.336;9.416;2024-03-02T06:20:57;9.18;;;7.15;;
27495;SDS011;14929;51.336;9.416;2024-03-02T06:23:26;7.55;;;6.30;;
27495;SDS011;14929;51.336;9.416;2024-03-02T06:25:53;7.68;;;6.85;;
27495;SDS011;14929;51.336;9.416;2024-03-02T06:28:21;7.40;;;5.60;;
27495;SDS011;14929;51.336;9.416;2024-03-02T06:30:48;7.75;;;6.90;;
27495;SDS011;14929;51.336;9.416;2024-03-02T06:33:16;10.88;;;8.57;;
27495;SDS011;14929;51.336;9.416;2024-03-02T06:35:45;10.05;;;8.55;;
27495;SDS011;14929;51.336;9.416;2024-03-02T06:38:14;8.35;;;7.55;;
27495;SDS011;14929;51.336;9.416;2024-03-02T06:40:41;8.30;;;7.38;;
27495;SDS011;14929;51.336;9.416;2024-03-02T06:43:09;8.70;;;6.78;;
27495;SDS011;14929;51.336;9.416;2024-03-02T06:45:37;7.60;;;6.32;;
27495;SDS011;14929;51.336;9.416;2024-03-02T06:48:05;6.15;;;5.55;;
27495;SDS011;14929;51.336;9.416;2024-03-02T06:50:33;6.85;;;6.05;;
27495;SDS011;14929;51.336;9.416;2024-03-02T06:53:02;6.05;;;5.28;;
27495;SDS011;14929;51.336;9.416;2024-03-02T06:55:30;5.20;;;4.70;;
27495;SDS011;14929;51.336;9.416;2024-03-02T06:57:57;6.22;;;5.63;;
27495;SDS011;14929;51.336;9.416;2024-03-02T07:00:25;5.13;;;4.63;;
27495;SDS011;14929;51.336;9.416;2024-03-02T07:02:52;5.97;;;5.38;;
27495;SDS011;14929;51.336;9.416;2024-03-02T07:05:20;5.88;;;5.32;;
27495;SDS011;14929;51.336;9.416;2024-03-02T07:07:47;5.90;;;5.32;;
27495;SDS011;14929;51.336;9.416;2024-03-02T07:10:16;6.45;;;5.80;;
27495;SDS011;14929;51.336;9.416;2024-03-02T07:12:44;6.78;;;5.90;;
27495;SDS011;14929;51.336;9.416;2024-03-02T07:15:11;5.50;;;4.90;;
27495;SDS011;14929;51.336;9.416;2024-03-02T07:18:08;6.40;;;5.30;;
27495;SDS011;14929;51.336;9.416;2024-03-02T07:20:35;6.20;;;5.30;;
27495;SDS011;14929;51.336;9.416;2024-03-02T07:23:04;6.88;;;6.18;;
27495;SDS011;14929;51.336;9.416;2024-03-02T07:25:33;6.57;;;5.97;;
27495;SDS011;14929;51.336;9.416;2024-03-02T07:28:01;6.22;;;5.63;;
27495;SDS011;14929;51.336;9.416;2024-03-02T07:30:29;8.23;;;6.47;;
27495;SDS011;14929;51.336;9.416;2024-03-02T07:32:57;7.70;;;6.90;;
27495;SDS011;14929;51.336;9.416;2024-03-02T07:35:24;7.50;;;6.72;;
27495;SDS011;14929;51.336;9.416;2024-03-02T07:37:52;7.63;;;6.82;;
27495;SDS011;14929;51.336;9.416;2024-03-02T07:40:20;10.05;;;8.52;;
27495;SDS011;14929;51.336;9.416;2024-03-02T07:42:49;9.07;;;8.18;;
27495;SDS011;14929;51.336;9.416;2024-03-02T07:45:17;8.60;;;7.38;;
27495;SDS011;14929;51.336;9.416;2024-03-02T07:47:44;8.68;;;7.13;;
27495;SDS011;14929;51.336;9.416;2024-03-02T07:50:13;9.52;;;8.15;;
27495;SDS011;14929;51.336;9.416;2024-03-02T07:52:40;13.68;;;9.70;;
27495;SDS011;14929;51.336;9.416;2024-03-02T07:55:08;7.72;;;6.78;;
27495;SDS011;14929;51.336;9.416;2024-03-02T07:57:36;7.90;;;6.57;;
27495;SDS011;14929;51.336;9.416;2024-03-02T08:00:06;10.82;;;9.07;;
27495;SDS011;14929;51.336;9.416;2024-03-02T08:02:35;7.50;;;6.63;;
27495;SDS011;14929;51.336;9.416;2024-03-02T08:05:03;8.50;;;7.43;;
27495;SDS011;14929;51.336;9.416;2024-03-02T08:07:31;9.95;;;8.10;;
27495;SDS011;14929;51.336;9.416;2024-03-02T08:09:58;8.43;;;7.22;;
27495;SDS011;14929;51.336;9.416;2024-03-02T08:12:26;10.60;;;8.52;;
27495;SDS011;14929;51.336;9.416;2024-03-02T08:14:53;8.43;;;7.53;;
27495;SDS011;14929;51.336;9.416;2024-03-02T08:17:22;10.02;;;7.45;;
27495;SDS011;14929;51.336;9.416;2024-03-02T08:19:50;8.18;;;6.57;;
27495;SDS011;14929;51.336;9.416;2024-03-02T08:22:17;9.77;;;6.90;;
27495;SDS011;14929;51.336;9.416;2024-03-02T08:24:45;9.70;;;7.03;;
27495;SDS011;14929;51.336;9.416;2024-03-02T08:27:12;10.45;;;8.93;;
27495;SDS011;14929;51.336;9.416;2024-03-02T08:29:40;9.35;;;8.32;;
27495;SDS011;14929;51.336;9.416;2024-03-02T08:32:08;8.23;;;7.38;;
27495;SDS011;14929;51.336;9.416;2024-03-02T08:34:37;9.50;;;7.82;;
27495;SDS011;14929;51.336;9.416;2024-03-02T08:37:04;11.80;;;9.63;;
27495;SDS011;14929;51.336;9.416;2024-03-02T08:39:32;10.25;;;7.97;;
27495;SDS011;14929;51.336;9.416;2024-03-02T08:42:00;8.20;;;7.35;;
27495;SDS011;14929;51.336;9.416;2024-03-02T08:44:29;10.95;;;8.63;;
27495;SDS011;14929;51.336;9.416;2024-03-02T08:46:58;13.75;;;9.05;;
27495;SDS011;14929;51.336;9.416;2024-03-02T08:49:26;10.98;;;8.10;;
27495;SDS011;14929;51.336;9.416;2024-03-02T08:51:55;9.20;;;8.23;;
27495;SDS011;14929;51.336;9.416;2024-03-02T08:54:22;10.50;;;8.52;;
27495;SDS011;14929;51.336;9.416;2024-03-02T08:56:50;11.02;;;9.45;;
27495;SDS011;14929;51.336;9.416;2024-03-02T08:59:17;10.57;;;9.02;;
27495;SDS011;14929;51.336;9.416;2024-03-02T09:01:45;10.25;;;8.07;;
27495;SDS011;14929;51.336;9.416;2024-03-02T09:04:12;8.25;;;7.45;;
27495;SDS011;14929;51.336;9.416;2024-03-02T09:06:40;10.20;;;8.82;;
27495;SDS011;14929;51.336;9.416;2024-03-02T09:09:09;12.55;;;9.70;;
27495;SDS011;14929;51.336;9.416;2024-03-02T09:11:36;11.20;;;8.73;;
27495;SDS011;14929;51.336;9.416;2024-03-02T09:14:04;11.18;;;8.73;;
27495;SDS011;14929;51.336;9.416;2024-03-02T09:16:31;8.00;;;7.20;;
27495;SDS011;14929;51.336;9.416;2024-03-02T09:18:59;9.00;;;7.75;;
27495;SDS011;14929;51.336;9.416;2024-03-02T09:21:26;9.95;;;8.90;;
27495;SDS011;14929;51.336;9.416;2024-03-02T09:23:55;9.82;;;7.20;;
27495;SDS011;14929;51.336;9.416;2024-03-02T09:26:24;10.55;;;8.50;;
27495;SDS011;14929;51.336;9.416;2024-03-02T09:28:51;9.65;;;8.27;;
27495;SDS011;14929;51.336;9.416;2024-03-02T09:31:19;10.32;;;7.72;;
27495;SDS011;14929;51.336;9.416;2024-03-02T09:33:46;9.40;;;8.20;;
27495;SDS011;14929;51.336;9.416;2024-03-02T09:36:17;7.93;;;7.03;;
27495;SDS011;14929;51.336;9.416;2024-03-02T09:38:45;9.43;;;7.88;;
27495;SDS011;14929;51.336;9.416;2024-03-02T09:41:12;8.73;;;7.88;;
27495;SDS011;14929;51.336;9.416;2024-03-02T09:43:42;8.77;;;7.82;;
27495;SDS011;14929;51.336;9.416;2024-03-02T09:46:09;7.78;;;7.03;;
27495;SDS011;14929;51.336;9.416;2024-03-02T09:48:37;10.63;;;8.45;;
27495;SDS011;14929;51.336;9.416;2024-03-02T09:51:05;9.38;;;8.13;;
27495;SDS011;14929;51.336;9.416;2024-03-02T09:53:33;10.80;;;8.38;;
27495;SDS011;14929;51.336;9.416;2024-03-02T09:56:01;11.07;;;8.20;;
27495;SDS011;14929;51.336;9.416;2024-03-02T09:58:29;8.70;;;6.97;;
27495;SDS011;14929;51.336;9.416;2024-03-02T10:00:59;11.98;;;8.32;;
27495;SDS011;14929;51.336;9.416;2024-03-02T10:03:26;8.40;;;7.10;;
27495;SDS011;14929;51.336;9.416;2024-03-02T10:08:47;8.13;;;7.05;;
27495;SDS011;14929;51.336;9.416;2024-03-02T10:11:25;8.00;;;7.20;;
27495;SDS011;14929;51.336;9.416;2024-03-02T10:14:04;9.88;;;7.03;;
27495;SDS011;14929;51.336;9.416;2024-03-02T10:16:35;9.75;;;7.50;;
27495;SDS011;14929;51.336;9.416;2024-03-02T10:19:14;10.27;;;8.05;;
27495;SDS011;14929;51.336;9.416;2024-03-02T10:21:43;9.90;;;7.40;;
27495;SDS011;14929;51.336;9.416;2024-03-02T10:24:12;8.90;;;7.20;;
27495;SDS011;14929;51.336;9.416;2024-03-02T10:26:39;7.72;;;6.93;;
27495;SDS011;14929;51.336;9.416;2024-03-02T10:29:08;7.15;;;6.40;;
27495;SDS011;14929;51.336;9.416;2024-03-02T10:31:38;6.95;;;6.07;;
27495;SDS011;14929;51.336;9.416;2024-03-02T10:34:07;6.95;;;5.63;;
27495;SDS011;14929;51.336;9.416;2024-03-02T10:36:35;8.07;;;5.88;;
27495;SDS011;14929;51.336;9.416;2024-03-02T10:39:04;6.82;;;6.22;;
27495;SDS011;14929;51.336;9.416;2024-03-02T10:41:33;7.10;;;6.40;;
27495;SDS011;14929;51.336;9.416;2024-03-02T10:44:03;8.38;;;6.50;;
27495;SDS011;14929;51.336;9.416;2024-03-02T10:46:32;7.10;;;6.40;;
27495;SDS011;14929;51.336;9.416;2024-03-02T10:49:03;6.88;;;6.15;;
27495;SDS011;14929;51.336;9.416;2024-03-02T10:51:32;7.18;;;6.47;;
27495;SDS011;14929;51.336;9.416;2024-03-02T10:54:01;6.63;;;6.03;;
27495;SDS011;14929;51.336;9.416;2024-03-02T10:56:31;6.25;;;5.53;;
27495;SDS011;14929;51.336;9.416;2024-03-02T10:59:02;7.30;;;6.60;;
27495;SDS011;14929;51.336;9.416;2024-03-02T11:01:32;9.38;;;7.20;;
27495;SDS011;14929;51.336;9.416;2024-03-02T11:04:01;7.30;;;6.38;;
27495;SDS011;14929;51.336;9.416;2024-03-02T11:06:31;6.55;;;5.85;;
27495;SDS011;14929;51.336;9.416;2024-03-02T11:09:04;6.35;;;5.75;;
27495;SDS011;14929;51.336;9.416;2024-03-02T11:11:36;6.03;;;5.43;;
27495;SDS011;14929;51.336;9.416;2024-03-02T11:14:07;6.85;;;6.15;;
27495;SDS011;14929;51.336;9.416;2024-03-02T11:16:42;6.80;;;6.10;;
27495;SDS011;14929;51.336;9.416;2024-03-02T11:19:13;7.60;;;5.82;;
27495;SDS011;14929;51.336;9.416;2024-03-02T11:21:41;5.30;;;4.80;;
27495;SDS011;14929;51.336;9.416;2024-03-02T11:26:59;6.47;;;5.60;;
27495;SDS011;14929;51.336;9.416;2024-03-02T11:29:43;8.23;;;6.15;;
27495;SDS011;14929;51.336;9.416;2024-03-02T11:32:15;8.27;;;5.57;;
27495;SDS011;14929;51.336;9.416;2024-03-02T11:34:47;6.13;;;5.53;;
27495;SDS011;14929;51.336;9.416;2024-03-02T11:37:16;6.15;;;5.55;;
27495;SDS011;14929;51.336;9.416;2024-03-02T11:39:46;5.38;;;4.88;;
27495;SDS011;14929;51.336;9.416;2024-03-02T11:42:15;4.63;;;4.22;;
27495;SDS011;14929;51.336;9.416;2024-03-02T11:44:44;5.53;;;4.90;;
27495;SDS011;14929;51.336;9.416;2024-03-02T11:47:15;3.95;;;3.63;;
27495;SDS011;14929;51.336;9.416;2024-03-02T11:49:43;5.03;;;4.40;;
27495;SDS011;14929;51.336;9.416;2024-03-02T11:52:15;4.60;;;4.18;;
27495;SDS011;14929;51.336;9.416;2024-03-02T11:54:43;4.07;;;3.67;;
27495;SDS011;14929;51.336;9.416;2024-03-02T11:57:14;4.72;;;4.28;;
27495;SDS011;14929;51.336;9.416;2024-03-02T11:59:42;4.43;;;4.03;;
27495;SDS011;14929;51.336;9.416;2024-03-02T12:02:17;5.80;;;4.13;;
27495;SDS011;14929;51.336;9.416;2024-03-02T12:04:47;6.57;;;5.90;;
27495;SDS011;14929;51.336;9.416;2024-03-02T12:07:18;5.55;;;4.97;;
27495;SDS011;14929;51.336;9.416;2024-03-02T12:09:47;4.88;;;4.38;;
27495;SDS011;14929;51.336;9.416;2024-03-02T12:12:15;4.28;;;3.97;;
27495;SDS011;14929;51.336;9.416;2024-03-02T12:14:49;3.55;;;3.22;;
27495;SDS011;14929;51.336;9.416;2024-03-02T12:17:20;5.07;;;4.68;;
27495;SDS011;14929;51.336;9.416;2024-03-02T12:19:49;4.72;;;4.15;;
27495;SDS011;14929;51.336;9.416;2024-03-02T12:22:17;5.95;;;5.15;;
27495;SDS011;14929;51.336;9.416;2024-03-02T12:24:45;4.82;;;4.38;;
27495;SDS011;14929;51.336;9.416;2024-03-02T12:27:13;3.85;;;3.40;;
27495;SDS011;14929;51.336;9.416;2024-03-02T12:29:43;4.60;;;4.20;;
27495;SDS011;14929;51.336;9.416;2024-03-02T12:32:11;3.45;;;3.15;;
27495;SDS011;14929;51.336;9.416;2024-03-02T12:34:38;3.92;;;3.58;;
27495;SDS011;14929;51.336;9.416;2024-03-02T12:37:07;4.35;;;3.95;;
27495;SDS011;14929;51.336;9.416;2024-03-02T12:39:38;3.33;;;3.13;;
27495;SDS011;14929;51.336;9.416;2024-03-02T12:42:06;3.63;;;3.33;;
27495;SDS011;14929;51.336;9.416;2024-03-02T12:44:33;3.38;;;3.15;;
27495;SDS011;14929;51.336;9.416;2024-03-02T12:47:01;2.47;;;2.28;;
27495;SDS011;14929;51.336;9.416;2024-03-02T12:49:29;3.22;;;2.92;;
27495;SDS011;14929;51.336;9.416;2024-03-02T12:51:57;4.65;;;4.18;;
27495;SDS011;14929;51.336;9.416;2024-03-02T12:54:26;3.67;;;3.38;;
27495;SDS011;14929;51.336;9.416;2024-03-02T12:56:54;3.58;;;3.28;;
27495;SDS011;14929;51.336;9.416;2024-03-02T12:59:23;4.88;;;3.70;;
27495;SDS011;14929;51.336;9.416;2024-03-02T13:01:51;3.38;;;3.08;;
27495;SDS011;14929;51.336;9.416;2024-03-02T13:04:24;5.93;;;3.60;;
27495;SDS011;14929;51.336;9.416;2024-03-02T13:06:52;3.72;;;3.38;;
27495;SDS011;14929;51.336;9.416;2024-03-02T13:09:22;3.47;;;3.17;;
27495;SDS011;14929;51.336;9.416;2024-03-02T13:11:52;3.95;;;3.15;;
27495;SDS011;14929;51.336;9.416;2024-03-02T13:14:21;3.50;;;3.25;;
27495;SDS011;14929;51.336;9.416;2024-03-02T13:16:50;4.53;;;3.67;;
27495;SDS011;14929;51.336;9.416;2024-03-02T13:19:17;3.20;;;2.90;;
27495;SDS011;14929;51.336;9.416;2024-03-02T13:21:45;2.58;;;2.38;;
27495;SDS011;14929;51.336;9.416;2024-03-02T13:24:13;2.83;;;2.63;;
27495;SDS011;14929;51.336;9.416;2024-03-02T13:26:40;3.03;;;2.83;;
27495;SDS011;14929;51.336;9.416;2024-03-02T13:29:09;3.22;;;2.70;;
27495;SDS011;14929;51.336;9.416;2024-03-02T13:31:37;2.90;;;2.70;;
27495;SDS011;14929;51.336;9.416;2024-03-02T13:34:05;3.60;;;3.28;;
27495;SDS011;14929;51.336;9.416;2024-03-02T13:36:32;4.07;;;3.67;;
27495;SDS011;14929;51.336;9.416;2024-03-02T13:39:00;2.55;;;2.35;;
27495;SDS011;14929;51.336;9.416;2024-03-02T13:41:30;2.63;;;2.40;;
27495;SDS011;14929;51.336;9.416;2024-03-02T13:43:57;3.60;;;3.30;;
27495;SDS011;14929;51.336;9.416;2024-03-02T13:46:27;3.15;;;2.85;;
27495;SDS011;14929;51.336;9.416;2024-03-02T13:48:55;2.90;;;2.67;;
27495;SDS011;14929;51.336;9.416;2024-03-02T13:51:23;3.75;;;3.33;;
27495;SDS011;14929;51.336;9.416;2024-03-02T13:53:50;2.85;;;2.63;;
27495;SDS011;14929;51.336;9.416;2024-03-02T13:56:18;3.30;;;3.00;;
27495;SDS011;14929;51.336;9.416;2024-03-02T13:58:45;3.45;;;2.97;;
27495;SDS011;14929;51.336;9.416;2024-03-02T14:01:13;2.75;;;2.50;;
27495;SDS011;14929;51.336;9.416;2024-03-02T14:03:42;3.15;;;2.85;;
27495;SDS011;14929;51.336;9.416;2024-03-02T14:06:11;3.67;;;2.63;;
27495;SDS011;14929;51.336;9.416;2024-03-02T14:08:39;2.50;;;2.30;;
27495;SDS011;14929;51.336;9.416;2024-03-02T14:11:09;2.17;;;2.00;;
27495;SDS011;14929;51.336;9.416;2024-03-02T14:13:40;2.53;;;2.33;;
27495;SDS011;14929;51.336;9.416;2024-03-02T14:16:09;2.30;;;2.10;;
27495;SDS011;14929;51.336;9.416;2024-03-02T14:18:37;2.70;;;1.90;;
27495;SDS011;14929;51.336;9.416;2024-03-02T14:21:06;1.80;;;1.60;;
27495;SDS011;14929;51.336;9.416;2024-03-02T14:23:33;1.70;;;1.60;;
27495;SDS011;14929;51.336;9.416;2024-03-02T14:26:01;1.45;;;1.35;;
27495;SDS011;14929;51.336;9.416;2024-03-02T14:28:29;1.30;;;1.20;;
27495;SDS011;14929;51.336;9.416;2024-03-02T14:30:56;1.65;;;1.55;;
27495;SDS011;14929;51.336;9.416;2024-03-02T14:33:25;1.90;;;1.80;;
27495;SDS011;14929;51.336;9.416;2024-03-02T14:35:53;1.70;;;1.60;;
27495;SDS011;14929;51.336;9.416;2024-03-02T14:38:23;1.60;;;1.23;;
27495;SDS011;14929;51.336;9.416;2024-03-02T14:40:50;1.30;;;1.25;;
27495;SDS011;14929;51.336;9.416;2024-03-02T14:43:18;1.58;;;1.33;;
27495;SDS011;14929;51.336;9.416;2024-03-02T14:45:45;1.40;;;1.30;;
27495;SDS011;14929;51.336;9.416;2024-03-02T14:48:13;1.33;;;1.30;;
27495;SDS011;14929;51.336;9.416;2024-03-02T14:50:40;1.30;;;1.20;;
27495;SDS011;14929;51.336;9.416;2024-03-02T14:53:09;1.63;;;1.48;;
27495;SDS011;14929;51.336;9.416;2024-03-02T14:55:38;1.70;;;1.52;;
27495;SDS011;14929;51.336;9.416;2024-03-02T14:58:06;2.65;;;1.98;;
27495;SDS011;14929;51.336;9.416;2024-03-02T15:00:34;1.92;;;1.73;;
27495;SDS011;14929;51.336;9.416;2024-03-02T15:03:02;1.15;;;1.13;;